createdAt,value
2018-10-09T00:00:55.779Z,40.33
2018-10-09T00:01:55.739Z,40.03
2018-10-09T00:02:55.690Z,39.93
2018-10-09T00:03:55.675Z,40.13
2018-10-09T00:04:55.662Z,40.05
2018-10-09T00:05:55.650Z,40.33
2018-10-09T00:06:55.642Z,40.03
2018-10-09T00:07:56.002Z,40.13
2018-10-09T00:08:55.618Z,40.23
2018-10-09T00:09:55.608Z,40.15
2018-10-09T00:10:55.604Z,39.83
2018-10-09T00:11:55.586Z,39.64
2018-10-09T00:12:55.577Z,39.93
2018-10-09T00:13:55.610Z,39.64
2018-10-09T00:14:55.553Z,40.13
2018-10-09T00:15:55.547Z,39.95
2018-10-09T00:16:55.533Z,40.13
2018-10-09T00:17:55.520Z,40.13
2018-10-09T00:18:55.509Z,40.13
2018-10-09T00:19:55.791Z,40.15
2018-10-09T00:20:55.486Z,40.33
2018-10-09T00:21:55.476Z,40.33
2018-10-09T00:22:55.468Z,40.15
2018-10-09T00:23:55.457Z,40.05
2018-10-09T00:24:55.446Z,40.13
2018-10-09T00:25:55.503Z,40.13
2018-10-09T00:26:55.428Z,40.05
2018-10-09T00:27:55.411Z,39.95
2018-10-09T00:28:55.404Z,39.93
2018-10-09T00:29:55.392Z,39.95
2018-10-09T00:30:55.380Z,39.93
2018-10-09T00:31:55.506Z,40.03
2018-10-09T00:32:55.362Z,40.23
2018-10-09T00:33:55.350Z,39.95
2018-10-09T00:34:55.339Z,40.03
2018-10-09T00:35:55.331Z,40.03
2018-10-09T00:36:55.319Z,40.05
2018-10-09T00:37:55.632Z,40.23
2018-10-09T00:38:55.300Z,39.93
2018-10-09T00:39:55.283Z,40.13
2018-10-09T00:40:55.274Z,40.13
2018-10-09T00:41:55.266Z,40.05
2018-10-09T00:42:55.254Z,39.95
2018-10-09T00:43:55.531Z,39.84
2018-10-09T00:44:55.235Z,40.15
2018-10-09T00:45:55.221Z,39.95
2018-10-09T00:46:55.210Z,40.05
2018-10-09T00:47:55.201Z,40.15
2018-10-09T00:48:55.192Z,39.95
2018-10-09T00:49:55.201Z,39.95
2018-10-09T00:50:55.173Z,39.95
2018-10-09T00:51:55.157Z,39.95
2018-10-09T00:52:55.144Z,40.15
2018-10-09T00:53:55.136Z,39.95
2018-10-09T00:54:55.127Z,39.84
2018-10-09T00:55:55.449Z,40.15
2018-10-09T00:56:55.105Z,39.95
2018-10-09T00:57:55.092Z,39.95
2018-10-09T00:58:55.080Z,39.84
2018-10-09T00:59:55.072Z,39.95
2018-10-09T01:00:55.067Z,40.05
2018-10-09T01:01:55.509Z,39.95
2018-10-09T01:02:55.044Z,40.15
2018-10-09T01:03:55.032Z,39.84
2018-10-09T01:04:55.015Z,39.95
2018-10-09T01:05:55.009Z,39.84
2018-10-09T01:06:54.996Z,40.05
2018-10-09T01:07:55.010Z,40.05
2018-10-09T01:08:55.045Z,39.95
2018-10-09T01:09:54.962Z,39.84
2018-10-09T01:10:54.955Z,40.05
2018-10-09T01:11:54.953Z,39.95
2018-10-09T01:12:54.940Z,40.05
2018-10-09T01:13:55.257Z,40.05
2018-10-09T01:14:54.910Z,40.05
2018-10-09T01:15:54.898Z,40.05
2018-10-09T01:16:54.890Z,39.95
2018-10-09T01:17:54.886Z,40.05
2018-10-09T01:18:54.873Z,39.95
2018-10-09T01:19:55.474Z,39.95
2018-10-09T01:20:54.845Z,39.84
2018-10-09T01:21:54.833Z,40.05
2018-10-09T01:22:54.827Z,39.95
2018-10-09T01:23:54.813Z,40.05
2018-10-09T01:24:54.802Z,40.05
2018-10-09T01:25:54.846Z,39.95
2018-10-09T01:26:54.781Z,39.95
2018-10-09T01:27:54.769Z,39.95
2018-10-09T01:28:54.762Z,39.95
2018-10-09T01:29:54.752Z,40.05
2018-10-09T01:30:54.741Z,39.95
2018-10-09T01:31:54.745Z,39.75
2018-10-09T01:32:54.720Z,40.05
2018-10-09T01:33:54.708Z,40.05
2018-10-09T01:34:54.697Z,39.95
2018-10-09T01:35:54.684Z,40.05
2018-10-09T01:36:54.678Z,39.95
2018-10-09T01:37:54.933Z,39.95
2018-10-09T01:38:54.655Z,39.97
2018-10-09T01:39:54.640Z,40.05
2018-10-09T01:40:54.631Z,39.95
2018-10-09T01:41:54.619Z,39.86
2018-10-09T01:42:54.607Z,39.95
2018-10-09T01:43:54.615Z,40.05
2018-10-09T01:44:54.586Z,39.97
2018-10-09T01:45:54.987Z,39.97
2018-10-09T01:46:54.566Z,39.97
2018-10-09T01:47:54.554Z,39.97
2018-10-09T01:48:54.545Z,39.97
2018-10-09T01:49:54.563Z,40.06
2018-10-09T01:50:54.521Z,39.86
2018-10-09T01:51:54.515Z,39.86
2018-10-09T01:52:54.505Z,39.97
2018-10-09T01:53:54.494Z,39.97
2018-10-09T01:54:54.491Z,39.86
2018-10-09T01:55:54.498Z,39.86
2018-10-09T01:56:54.457Z,39.97
2018-10-09T01:57:54.446Z,39.97
2018-10-09T01:58:54.437Z,40.06
2018-10-09T01:59:54.425Z,39.97
2018-10-09T02:00:54.412Z,39.97
2018-10-09T02:01:54.511Z,39.86
2018-10-09T02:02:54.393Z,40.06
2018-10-09T02:03:54.383Z,39.86
2018-10-09T02:04:54.368Z,39.97
2018-10-09T02:05:54.360Z,40.06
2018-10-09T02:06:54.347Z,39.97
2018-10-09T02:07:54.364Z,39.86
2018-10-09T02:08:54.330Z,39.97
2018-10-09T02:09:54.317Z,39.76
2018-10-09T02:10:54.307Z,39.86
2018-10-09T02:11:54.298Z,39.86
2018-10-09T02:12:54.288Z,39.86
2018-10-09T02:13:54.509Z,39.97
2018-10-09T02:14:54.265Z,39.97
2018-10-09T02:15:54.251Z,39.86
2018-10-09T02:16:54.247Z,39.86
2018-10-09T02:17:54.231Z,40.17
2018-10-09T02:18:54.218Z,39.97
2018-10-09T02:19:54.243Z,39.86
2018-10-09T02:20:54.200Z,39.86
2018-10-09T02:21:54.186Z,39.86
2018-10-09T02:22:54.175Z,39.98
2018-10-09T02:23:54.170Z,39.86
2018-10-09T02:24:54.149Z,39.86
2018-10-09T02:25:54.161Z,39.97
2018-10-09T02:26:54.133Z,39.66
2018-10-09T02:27:54.119Z,39.86
2018-10-09T02:28:54.110Z,39.86
2018-10-09T02:29:54.096Z,39.97
2018-10-09T02:30:54.089Z,39.66
2018-10-09T02:31:54.505Z,39.97
2018-10-09T02:32:54.065Z,39.66
2018-10-09T02:33:54.056Z,40.37
2018-10-09T02:34:54.050Z,39.97
2018-10-09T02:35:54.034Z,39.97
2018-10-09T02:36:54.024Z,39.66
2018-10-09T02:37:54.029Z,39.69
2018-10-09T02:38:54.009Z,39.86
2018-10-09T02:39:53.992Z,39.76
2018-10-09T02:40:53.983Z,39.86
2018-10-09T02:41:53.968Z,40.28
2018-10-09T02:42:53.964Z,40.39
2018-10-09T02:43:54.233Z,39.58
2018-10-09T02:44:53.935Z,39.88
2018-10-09T02:45:53.931Z,39.48
2018-10-09T02:46:53.916Z,39.69
2018-10-09T02:47:53.908Z,39.69
2018-10-09T02:48:53.898Z,39.88
2018-10-09T02:49:54.227Z,39.69
2018-10-09T02:50:53.874Z,39.78
2018-10-09T02:51:53.863Z,39.98
2018-10-09T02:52:53.849Z,39.97
2018-10-09T02:53:53.843Z,39.69
2018-10-09T02:54:53.830Z,39.98
2018-10-09T02:55:54.157Z,39.78
2018-10-09T02:56:53.812Z,39.58
2018-10-09T02:57:53.811Z,39.69
2018-10-09T02:58:53.790Z,39.58
2018-10-09T02:59:53.787Z,40.39
2018-10-09T03:00:53.774Z,40.39
2018-10-09T03:01:53.782Z,39.69
2018-10-09T03:02:53.744Z,40.08
2018-10-09T03:03:53.733Z,39.66
2018-10-09T03:04:53.722Z,39.58
2018-10-09T03:05:53.713Z,39.58
2018-10-09T03:06:53.705Z,39.69
2018-10-09T03:07:53.976Z,39.56
2018-10-09T03:08:53.681Z,40.28
2018-10-09T03:09:53.670Z,39.69
2018-10-09T03:10:53.660Z,40.19
2018-10-09T03:11:53.649Z,39.38
2018-10-09T03:12:53.641Z,40.48
2018-10-09T03:13:53.635Z,40.08
2018-10-09T03:14:53.615Z,40.28
2018-10-09T03:15:53.611Z,40.08
2018-10-09T03:16:53.591Z,40.39
2018-10-09T03:17:53.583Z,40.28
2018-10-09T03:18:53.571Z,40.39
2018-10-09T03:19:53.870Z,40.39
2018-10-09T03:20:53.552Z,40.39
2018-10-09T03:21:53.538Z,40.28
2018-10-09T03:22:53.526Z,40.39
2018-10-09T03:23:53.518Z,40.08
2018-10-09T03:24:53.507Z,40.39
2018-10-09T03:25:54.012Z,40.39
2018-10-09T03:26:53.486Z,40.08
2018-10-09T03:27:53.473Z,40.48
2018-10-09T03:28:53.465Z,40.39
2018-10-09T03:29:53.454Z,40.28
2018-10-09T03:30:53.442Z,40.39
2018-10-09T03:31:53.507Z,39.58
2018-10-09T03:32:53.417Z,40.39
2018-10-09T03:33:53.408Z,40.48
2018-10-09T03:34:53.401Z,40.30
2018-10-09T03:35:53.384Z,40.08
2018-10-09T03:36:53.378Z,40.20
2018-10-09T03:37:53.724Z,40.39
2018-10-09T03:38:53.357Z,40.48
2018-10-09T03:39:53.340Z,40.19
2018-10-09T03:40:53.334Z,40.41
2018-10-09T03:41:53.319Z,40.28
2018-10-09T03:42:53.312Z,40.39
2018-10-09T03:43:53.341Z,40.19
2018-10-09T03:44:53.291Z,40.41
2018-10-09T03:45:53.278Z,40.20
2018-10-09T03:46:53.273Z,39.48
2018-10-09T03:47:53.254Z,40.39
2018-10-09T03:48:53.243Z,40.19
2018-10-09T03:49:53.513Z,40.41
2018-10-09T03:50:53.222Z,40.39
2018-10-09T03:51:53.214Z,40.28
2018-10-09T03:52:53.202Z,40.41
2018-10-09T03:53:53.189Z,40.39
2018-10-09T03:54:53.181Z,40.41
2018-10-09T03:55:53.513Z,40.39
2018-10-09T03:56:53.157Z,40.39
2018-10-09T03:57:53.153Z,40.30
2018-10-09T03:58:53.141Z,40.39
2018-10-09T03:59:53.126Z,40.19
2018-10-09T04:00:53.116Z,40.30
2018-10-09T04:01:53.125Z,40.11
2018-10-09T04:02:53.097Z,40.39
2018-10-09T04:03:53.082Z,40.19
2018-10-09T04:04:53.072Z,40.30
2018-10-09T04:05:53.060Z,40.11
2018-10-09T04:06:53.048Z,40.28
2018-10-09T04:07:53.062Z,39.70
2018-10-09T04:08:53.057Z,39.78
2018-10-09T04:09:53.015Z,40.20
2018-10-09T04:10:53.007Z,40.39
2018-10-09T04:11:52.998Z,39.90
2018-10-09T04:12:52.985Z,39.88
2018-10-09T04:13:52.992Z,39.90
2018-10-09T04:14:52.963Z,39.98
2018-10-09T04:15:52.953Z,39.98
2018-10-09T04:16:52.943Z,39.98
2018-10-09T04:17:52.934Z,40.08
2018-10-09T04:18:52.918Z,40.20
2018-10-09T04:19:53.012Z,39.88
2018-10-09T04:20:52.898Z,40.28
2018-10-09T04:21:52.891Z,39.78
2018-10-09T04:22:52.878Z,39.69
2018-10-09T04:23:52.870Z,39.98
2018-10-09T04:24:52.853Z,40.19
2018-10-09T04:25:52.865Z,40.28
2018-10-09T04:26:52.836Z,39.98
2018-10-09T04:27:52.826Z,40.08
2018-10-09T04:28:52.814Z,39.78
2018-10-09T04:29:52.803Z,39.98
2018-10-09T04:30:52.789Z,40.08
2018-10-09T04:31:53.103Z,39.98
2018-10-09T04:32:52.771Z,39.78
2018-10-09T04:33:52.756Z,39.98
2018-10-09T04:34:52.747Z,39.88
2018-10-09T04:35:52.732Z,40.08
2018-10-09T04:36:52.724Z,39.58
2018-10-09T04:37:52.739Z,40.08
2018-10-09T04:38:52.700Z,40.28
2018-10-09T04:39:52.698Z,40.48
2018-10-09T04:40:52.680Z,40.19
2018-10-09T04:41:52.668Z,40.39
2018-10-09T04:42:52.660Z,40.39
2018-10-09T04:43:53.011Z,40.20
2018-10-09T04:44:52.641Z,40.28
2018-10-09T04:45:52.629Z,40.19
2018-10-09T04:46:52.619Z,40.39
2018-10-09T04:47:52.610Z,39.98
2018-10-09T04:48:52.594Z,40.19
2018-10-09T04:49:52.913Z,40.28
2018-10-09T04:50:52.573Z,40.11
2018-10-09T04:51:52.563Z,40.19
2018-10-09T04:52:52.570Z,40.28
2018-10-09T04:53:52.541Z,40.19
2018-10-09T04:54:52.530Z,40.30
2018-10-09T04:55:52.533Z,40.39
2018-10-09T04:56:52.506Z,40.20
2018-10-09T04:57:52.500Z,40.28
2018-10-09T04:58:52.487Z,40.39
2018-10-09T04:59:52.473Z,40.39
2018-10-09T05:00:52.470Z,40.39
2018-10-09T05:01:52.470Z,40.39
2018-10-09T05:02:52.441Z,40.39
2018-10-09T05:03:52.433Z,40.28
2018-10-09T05:04:52.422Z,40.48
2018-10-09T05:05:52.414Z,40.39
2018-10-09T05:06:52.399Z,40.39
2018-10-09T05:07:53.016Z,40.48
2018-10-09T05:08:52.377Z,40.70
2018-10-09T05:09:52.364Z,40.59
2018-10-09T05:10:52.358Z,40.79
2018-10-09T05:11:52.344Z,40.89
2018-10-09T05:12:52.335Z,40.79
2018-10-09T05:13:52.655Z,41.19
2018-10-09T05:14:52.314Z,41.29
2018-10-09T05:15:52.304Z,41.19
2018-10-09T05:16:52.287Z,41.49
2018-10-09T05:17:52.375Z,41.19
2018-10-09T05:18:52.276Z,41.39
2018-10-09T05:19:52.512Z,40.99
2018-10-09T05:20:52.246Z,40.89
2018-10-09T05:21:52.239Z,41.39
2018-10-09T05:22:52.223Z,40.99
2018-10-09T05:23:52.215Z,41.09
2018-10-09T05:24:52.205Z,40.69
2018-10-09T05:25:52.208Z,41.39
2018-10-09T05:26:52.182Z,40.28
2018-10-09T05:27:52.175Z,40.28
2018-10-09T05:28:52.163Z,40.59
2018-10-09T05:29:52.154Z,40.39
2018-10-09T05:30:52.144Z,40.79
2018-10-09T05:31:52.453Z,40.39
2018-10-09T05:32:52.117Z,40.59
2018-10-09T05:33:52.105Z,40.59
2018-10-09T05:34:52.094Z,41.09
2018-10-09T05:35:52.087Z,40.99
2018-10-09T05:36:52.072Z,40.39
2018-10-09T05:37:52.413Z,40.99
2018-10-09T05:38:52.049Z,40.39
2018-10-09T05:39:52.042Z,40.39
2018-10-09T05:40:52.030Z,40.28
2018-10-09T05:41:52.016Z,40.28
2018-10-09T05:42:52.009Z,40.08
2018-10-09T05:43:52.316Z,39.78
2018-10-09T05:44:51.984Z,40.19
2018-10-09T05:45:51.976Z,39.38
2018-10-09T05:46:51.966Z,40.08
2018-10-09T05:47:51.952Z,39.88
2018-10-09T05:48:51.940Z,39.60
2018-10-09T05:49:52.013Z,40.00
2018-10-09T05:50:51.920Z,39.70
2018-10-09T06:49:19.656Z,40.07
2018-10-09T06:50:19.626Z,41.09
2018-10-09T06:51:19.614Z,42.03
2018-10-09T06:52:19.609Z,41.93
2018-10-09T06:53:19.626Z,41.96
2018-10-09T06:54:19.631Z,41.87
2018-10-09T06:55:20.270Z,41.67
2018-10-09T06:56:19.564Z,42.68
2018-10-09T06:57:19.550Z,42.78
2018-10-09T06:58:19.541Z,42.47
2018-10-09T06:59:19.528Z,42.97
2018-10-09T07:00:19.598Z,42.47
2018-10-09T07:01:19.558Z,42.68
2018-10-09T07:02:19.502Z,42.88
2018-10-09T07:03:19.493Z,42.88
2018-10-09T07:04:19.481Z,42.96
2018-10-09T07:05:19.468Z,42.86
2018-10-09T07:06:19.460Z,42.55
2018-10-09T07:07:19.873Z,42.66
2018-10-09T07:08:19.441Z,43.04
2018-10-09T07:09:20.053Z,42.86
2018-10-09T07:10:19.415Z,43.14
2018-10-09T07:11:19.532Z,43.84
2018-10-09T07:12:19.396Z,43.24
2018-10-09T07:13:19.400Z,43.46
2018-10-09T07:14:19.376Z,43.54
2018-10-09T07:15:19.364Z,43.56
2018-10-09T07:16:19.367Z,44.14
2018-10-09T07:17:19.347Z,43.94
2018-10-09T07:18:19.331Z,43.64
2018-10-09T07:19:19.368Z,43.24
2018-10-09T07:20:19.315Z,43.94
2018-10-09T07:21:19.309Z,44.14
2018-10-09T07:22:19.292Z,44.44
2018-10-09T07:23:19.282Z,44.04
2018-10-09T07:24:19.273Z,43.34
2018-10-09T07:25:19.271Z,43.84
2018-10-09T07:26:19.245Z,44.34
2018-10-09T07:27:19.242Z,43.24
2018-10-09T07:28:19.229Z,44.14
2018-10-09T07:29:19.213Z,44.04
2018-10-09T07:30:19.209Z,43.94
2018-10-09T07:31:19.213Z,44.14
2018-10-09T07:32:19.188Z,43.94
2018-10-09T07:33:19.181Z,44.14
2018-10-09T07:34:19.167Z,43.94
2018-10-09T07:35:19.153Z,43.52
2018-10-09T07:36:19.145Z,43.52
2018-10-09T07:37:19.374Z,43.24
2018-10-09T07:38:19.126Z,43.82
2018-10-09T07:39:19.116Z,44.12
2018-10-09T07:40:19.104Z,44.22
2018-10-09T07:41:19.094Z,44.24
2018-10-09T07:42:19.079Z,43.74
2018-10-09T07:43:19.105Z,43.84
2018-10-09T07:44:19.112Z,44.14
2018-10-09T07:45:19.047Z,43.92
2018-10-09T07:46:19.035Z,44.24
2018-10-09T07:47:19.028Z,44.12
2018-10-09T07:48:19.015Z,44.14
2018-10-09T07:49:19.301Z,44.12
2018-10-09T07:50:19.003Z,43.82
2018-10-09T07:51:18.983Z,43.38
2018-10-09T07:52:18.971Z,43.60
2018-10-09T07:53:18.968Z,44.30
2018-10-09T07:54:18.970Z,44.30
2018-10-09T07:55:19.211Z,44.10
2018-10-09T07:56:18.933Z,44.10
2018-10-09T07:57:18.924Z,43.92
2018-10-09T07:58:18.910Z,44.42
2018-10-09T07:59:18.901Z,43.82
2018-10-09T08:00:18.896Z,43.82
2018-10-09T08:01:19.218Z,43.92
2018-10-09T08:02:18.878Z,43.90
2018-10-09T08:03:18.857Z,43.70
2018-10-09T08:04:18.845Z,44.02
2018-10-09T08:05:18.840Z,43.42
2018-10-09T08:06:18.825Z,43.60
2018-10-09T08:07:18.866Z,43.50
2018-10-09T08:08:18.807Z,43.10
2018-10-09T08:09:18.798Z,42.90
2018-10-09T08:10:18.850Z,43.60
2018-10-09T08:11:18.781Z,43.19
2018-10-09T08:12:18.764Z,43.40
2018-10-09T08:13:18.872Z,43.19
2018-10-09T08:14:18.742Z,43.60
2018-10-09T08:15:18.728Z,43.70
2018-10-09T08:16:18.795Z,43.19
2018-10-09T08:17:18.708Z,42.99
2018-10-09T08:18:18.702Z,42.97
2018-10-09T08:19:18.708Z,42.88
2018-10-09T08:20:18.680Z,42.80
2018-10-09T08:21:18.667Z,43.50
2018-10-09T08:22:18.708Z,43.10
2018-10-09T08:23:18.648Z,43.58
2018-10-09T08:24:18.635Z,43.60
2018-10-09T16:41:29.303Z,51.82
2018-10-09T16:42:29.207Z,51.84
2018-10-09T16:43:29.159Z,51.94
2018-10-09T16:44:29.103Z,51.94
2018-10-09T16:45:29.047Z,51.74
2018-10-09T16:46:28.987Z,52.04
2018-10-09T16:47:29.468Z,53.05
2018-10-09T16:48:28.857Z,51.84
2018-10-09T16:49:28.794Z,51.84
2018-10-09T16:50:28.728Z,51.84
2018-10-09T16:51:28.662Z,51.94
2018-10-09T16:52:28.597Z,52.04
2018-10-09T16:53:28.732Z,52.04
2018-10-09T16:54:28.878Z,51.94
2018-10-09T16:55:28.387Z,51.74
2018-10-09T16:56:28.325Z,51.64
2018-10-09T16:57:28.246Z,52.24
2018-10-09T16:58:28.197Z,51.32
2018-10-09T16:59:29.564Z,51.02
2018-10-09T17:02:25.877Z,46.54
2018-10-09T17:03:04.000Z,46.73
2018-10-09T17:04:05.420Z,46.66
2018-10-09T17:05:06.987Z,46.76
2018-10-09T17:06:03.881Z,46.76
2018-10-09T17:07:18.857Z,46.36
2018-10-09T17:08:04.125Z,46.16
